KCOD/COD METAR and TAF weather

Enter ICAO airport designator
Station Type Date Time Source
KCOD METAR 2021/05/11 00:56 UTC NOAA

KCOD 110056Z AUTO 12012G19KT 10SM -RA BKN018 BKN026 OVC033 04/02 A3017 RMK AO2 PK WND 14026/0017 RAB18 SLP240 P0004 T00440022


Station Type Date Time Source
KCOD Decoded METAR 2021/05/11 00:56 UTC NOAA

Cody, WY, United States (KCOD) 44-31N 109-01W 1553M
May 10, 2021 - 08:56 PM EDT / 2021.05.11 0056 UTC
Wind: from the ESE (120 degrees) at 14 MPH (12 KT) gusting to 22 MPH (19 KT):0
Visibility: 10 mile(s):0
Sky conditions: overcast
Weather: light rain
Precipitation last hour: 0.04 inches
Temperature: 39.9 F (4.4 C)
Dew Point: 36.0 F (2.2 C)
Relative Humidity: 85%
Pressure (altimeter): 30.17 in. Hg (1021 hPa)
ob: KCOD 110056Z AUTO 12012G19KT 10SM -RA BKN018 BKN026 OVC033 04/02 A3017 RMK AO2 PK WND 14026/0017 RAB18 SLP240 P0004 T00440022
cycle: 1

Station Type Date Time Source
KCOD TAF 2021/05/10 18:42 UTC NOAA

TAF KCOD 101726Z 1018/1118 35006KT P6SM VCSH SCT025 BKN040
FM102000 36011KT P6SM VCSH OVC035
FM110200 24007KT P6SM VCSH OVC035
FM110600 VRB04KT P6SM VCSH SCT035 OVC080

Example: see airport list